Погода Мочудина неделю

Кгатленг, Ботсвана

24 - 30 июля
  • 24июля
    Сегодня
    +4°
    +26°
    Ясно и безоблачно
    ВремяПогодаТемператураВлажностьДавлениеВетер, м/сВероятность осадков
    02:00Ясно и безоблачно+12°C22 %684 мм2.6 м/с2 %
    05:00Ясно и безоблачно+8°C24 %683 мм3.0 м/с2 %
    08:00Ясно и безоблачно+8°C22 %685 мм3.2 м/с2 %
    11:00Ясно и безоблачно+21°C10 %688 мм1.5 м/с2 %
    14:00Ясно и безоблачно+25°C4 %686 мм3.0 м/с2 %
    17:00Ясно и безоблачно+23°C7 %684 мм1.6 м/с2 %
    20:00Ясно и безоблачно+14°C11 %683 мм2.7 м/с2 %
    23:00Ясно и безоблачно+10°C11 %683 мм2.6 м/с2 %
  • 25июля
    Четверг
    +4°
    +25°
    Ясно и безоблачно
    ВремяПогодаТемператураВлажностьДавлениеВетер, м/сВероятность осадков
    02:00Ясно и безоблачно+7°C13 %682 мм3.2 м/с2 %
    05:00Ясно и безоблачно+6°C16 %682 мм2.5 м/с2 %
    08:00Ясно и безоблачно+7°C16 %683 мм2.7 м/с2 %
    11:00Ясно и безоблачно+19°C7 %686 мм0.7 м/с2 %
    14:00Ясно и безоблачно+24°C5 %685 мм0.8 м/с2 %
    17:00Ясно и безоблачно+22°C8 %683 мм1.1 м/с2 %
    20:00Ясно и безоблачно+18°C9 %683 мм2.1 м/с2 %
    23:00Ясно и безоблачно+10°C16 %682 мм2.2 м/с2 %
  • 26июля
    Пятница
    +8°
    +26°
    Ясно и безоблачно
    ВремяПогодаТемператураВлажностьДавлениеВетер, м/сВероятность осадков
    02:00Ясно и безоблачно+7°C22 %680 мм2.2 м/с2 %
    05:00Ясно и безоблачно+5°C28 %680 мм2.4 м/с2 %
    08:00Ясно и безоблачно+7°C50 %683 мм3.0 м/с2 %
    11:00Ясно и безоблачно+18°C49 %685 мм2.9 м/с2 %
    14:00Ясно и безоблачно+25°C21 %683 мм1.9 м/с2 %
    17:00Ясно и безоблачно+24°C15 %682 мм0.7 м/с2 %
    20:00Ясно и безоблачно+16°C27 %681 мм3.1 м/с2 %
    23:00Ясно и безоблачно+14°C37 %681 мм3.0 м/с2 %
  • 27июля
    Суббота
    +6°
    +26°
    Ясно и безоблачно
    ВремяПогодаТемператураВлажностьДавлениеВетер, м/сВероятность осадков
    02:00Ясно и безоблачно+13°C46 %681 мм0.4 м/с2 %
    05:00Ясно и безоблачно+10°C71 %680 мм2.5 м/с2 %
    08:00Ясно и безоблачно+10°C71 %682 мм1.4 м/с2 %
    11:00Ясно и безоблачно+19°C36 %684 мм0.5 м/с2 %
    14:00Ясно и безоблачно+24°C13 %682 мм2.2 м/с2 %
    17:00Ясно и безоблачно+23°C10 %681 мм1.8 м/с2 %
    20:00Ясно и безоблачно+15°C10 %681 мм2.9 м/с2 %
    23:00Ясно и безоблачно+11°C10 %681 мм3.6 м/с2 %
  • 28июля
    Воскресенье
    +1°
    +21°
    Ясно и безоблачно
    ВремяПогодаТемператураВлажностьДавлениеВетер, м/сВероятность осадков
    02:00Ясно и безоблачно+9°C14 %681 мм3.4 м/с2 %
    05:00Ясно и безоблачно+7°C21 %681 мм2.7 м/с2 %
    08:00Ясно и безоблачно+8°C24 %683 мм3.5 м/с2 %
    11:00Ясно и безоблачно+17°C22 %685 мм6.1 м/с2 %
    14:00Ясно и безоблачно+20°C16 %684 мм5.3 м/с2 %
    17:00Ясно и безоблачно+19°C15 %684 мм4.1 м/с2 %
    20:00Ясно и безоблачно+14°C24 %684 мм3.9 м/с2 %
    23:00Ясно и безоблачно+10°C35 %684 мм3.0 м/с2 %
Мы используем cookies
Соглашаюсь